Time;durP1;ratioP1;P1;durP2;ratioP2;P2;SDS_P1;SDS_P2;PMS_P1;PMS_P2;Temp;Humidity;BMP_temperature;BMP_pressure;BME280_temperature;BME280_humidity;BME280_pressure;Samples;Min_cycle;Max_cycle;Signal;HPM_P1;HPM_P2
2022/10/08 00:01:02;;;;;;;;;;;12.00;91.50;;;;;;5081143;28;19967;-71
2022/10/08 00:03:29;;;;;;;;;;;12.10;91.50;;;;;;5077481;28;19962;-71
2022/10/08 00:06:00;;;;;;;;;;;12.00;91.60;;;;;;5083525;28;19920;-71
2022/10/08 00:08:27;;;;;;;;;;;12.00;91.50;;;;;;5080547;28;20011;-71
2022/10/08 00:10:54;;;;;;;;;;;12.00;91.50;;;;;;5084586;28;19912;-71
2022/10/08 00:13:20;;;;;;;;;;;12.00;91.50;;;;;;5082561;28;19923;-71
2022/10/08 00:15:46;;;;;;;;;;;12.00;91.50;;;;;;5083582;28;19935;-71
2022/10/08 00:18:11;;;;;;;;;;;12.00;91.50;;;;;;5082202;28;19916;-71
2022/10/08 00:20:37;;;;;;;;;;;12.00;91.50;;;;;;5084507;28;20024;-71
2022/10/08 00:23:02;;;;;;;;;;;12.00;91.40;;;;;;5083429;28;19923;-71
2022/10/08 00:25:28;;;;;;;;;;;12.00;91.50;;;;;;5084721;28;19967;-71
2022/10/08 00:27:53;;;;;;;;;;;12.00;91.40;;;;;;5082706;28;19923;-71
2022/10/08 00:30:19;;;;;;;;;;;12.00;91.40;;;;;;5083141;28;19916;-71
2022/10/08 00:32:44;;;;;;;;;;;12.00;91.40;;;;;;5085303;28;20096;-71
2022/10/08 00:35:10;;;;;;;;;;;12.00;91.50;;;;;;5082191;28;19964;-71
2022/10/08 00:37:35;;;;;;;;;;;12.00;91.50;;;;;;5086098;28;19912;-71
2022/10/08 00:40:01;;;;;;;;;;;12.00;91.50;;;;;;5082956;28;20372;-71
2022/10/08 00:42:26;;;;;;;;;;;12.00;91.50;;;;;;5085620;28;19919;-71
2022/10/08 00:44:54;;;;;;;;;;;12.00;91.40;;;;;;5080681;28;20039;-71
2022/10/08 00:47:32;;;;;;;;;;;12.00;91.40;;;;;;5084711;28;19968;-71
2022/10/08 00:50:21;;;;;;;;;;;12.00;91.40;;;;;;5080608;28;19985;-71
2022/10/08 00:52:49;;;;;;;;;;;12.00;91.70;;;;;;5070947;28;19939;-71
2022/10/08 00:55:17;;;;;;;;;;;12.00;91.40;;;;;;5079038;28;19920;-71
2022/10/08 00:57:42;;;;;;;;;;;12.00;91.40;;;;;;5066127;28;19912;-71
2022/10/08 01:00:10;;;;;;;;;;;12.00;91.40;;;;;;5082637;28;19916;-71
2022/10/08 01:02:36;;;;;;;;;;;11.90;91.40;;;;;;5083143;28;19916;-71
2022/10/08 01:05:03;;;;;;;;;;;12.00;91.40;;;;;;5081672;28;19920;-71
2022/10/08 01:07:33;;;;;;;;;;;12.00;91.40;;;;;;5085786;28;19916;-71
2022/10/08 01:10:02;;;;;;;;;;;11.90;91.50;;;;;;5082133;28;19958;-71
2022/10/08 01:12:27;;;;;;;;;;;12.00;91.50;;;;;;5078577;28;19961;-71
2022/10/08 01:14:59;;;;;;;;;;;12.00;91.40;;;;;;5083486;28;20384;-71
2022/10/08 01:17:30;;;;;;;;;;;11.90;91.50;;;;;;5084656;28;19916;-71
2022/10/08 01:19:56;;;;;;;;;;;11.90;91.40;;;;;;5078926;28;19923;-71
2022/10/08 01:22:40;;;;;;;;;;;11.90;91.40;;;;;;5080031;28;19916;-71
2022/10/08 01:25:33;;;;;;;;;;;11.90;91.50;;;;;;5079408;28;19957;-71
2022/10/08 01:28:18;;;;;;;;;;;11.90;91.50;;;;;;5081988;28;19954;-71
2022/10/08 01:30:53;;;;;;;;;;;11.90;91.70;;;;;;5079404;28;19973;-71
2022/10/08 01:33:37;;;;;;;;;;;11.90;91.50;;;;;;5084212;28;19916;-71
2022/10/08 01:36:04;;;;;;;;;;;11.90;91.50;;;;;;5080720;28;20376;-71
2022/10/08 01:38:32;;;;;;;;;;;11.90;91.40;;;;;;5084850;28;19919;-71
2022/10/08 01:40:59;;;;;;;;;;;11.90;91.40;;;;;;5081978;28;20006;-71
2022/10/08 01:43:27;;;;;;;;;;;11.90;91.40;;;;;;5083707;28;19919;-71
2022/10/08 01:45:55;;;;;;;;;;;11.90;91.40;;;;;;5079661;28;19957;-71
2022/10/08 01:48:24;;;;;;;;;;;11.90;91.40;;;;;;5080757;28;20326;-71
2022/10/08 01:50:52;;;;;;;;;;;11.90;91.40;;;;;;5075198;28;19919;-71
2022/10/08 01:53:20;;;;;;;;;;;11.90;91.30;;;;;;5081775;28;19927;-71
2022/10/08 01:55:50;;;;;;;;;;;11.90;91.40;;;;;;5082451;28;20369;-71
2022/10/08 01:58:30;;;;;;;;;;;11.90;91.40;;;;;;5082255;28;19916;-71
2022/10/08 02:00:58;;;;;;;;;;;11.90;91.40;;;;;;5083675;28;20002;-71
2022/10/08 02:03:24;;;;;;;;;;;11.90;91.40;;;;;;5080885;28;19916;-71
2022/10/08 02:05:52;;;;;;;;;;;11.90;91.40;;;;;;5083116;28;20618;-71
2022/10/08 02:08:17;;;;;;;;;;;11.90;91.40;;;;;;5082000;28;19935;-71
2022/10/08 02:10:43;;;;;;;;;;;11.90;91.40;;;;;;5083696;28;19916;-71
2022/10/08 02:13:09;;;;;;;;;;;11.90;91.40;;;;;;5082182;28;19923;-71
2022/10/08 02:15:40;;;;;;;;;;;11.90;91.40;;;;;;5063183;28;19920;-71
2022/10/08 02:18:14;;;;;;;;;;;11.90;91.40;;;;;;5082005;28;19916;-71
2022/10/08 02:20:43;;;;;;;;;;;11.90;91.40;;;;;;5079192;28;19920;-71
2022/10/08 02:23:11;;;;;;;;;;;11.90;91.40;;;;;;5081076;28;19920;-71
2022/10/08 02:26:03;;;;;;;;;;;11.90;91.40;;;;;;5080676;28;20274;-71
2022/10/08 02:28:28;;;;;;;;;;;11.90;91.30;;;;;;5076409;28;19923;-72
2022/10/08 02:30:57;;;;;;;;;;;11.90;91.40;;;;;;5083617;28;20551;-71
2022/10/08 02:33:31;;;;;;;;;;;11.90;91.30;;;;;;5085695;28;19947;-71
2022/10/08 02:35:57;;;;;;;;;;;11.90;91.40;;;;;;5087896;28;19955;-71
2022/10/08 02:38:26;;;;;;;;;;;11.90;91.30;;;;;;5085683;28;19912;-71
2022/10/08 02:40:53;;;;;;;;;;;11.90;91.40;;;;;;5087497;28;19963;-71
2022/10/08 02:43:24;;;;;;;;;;;11.90;91.30;;;;;;5086690;28;19962;-71
2022/10/08 02:45:56;;;;;;;;;;;11.90;91.30;;;;;;5086056;28;19923;-71
2022/10/08 02:48:25;;;;;;;;;;;11.90;91.30;;;;;;5086416;28;19912;-71
2022/10/08 02:50:52;;;;;;;;;;;11.90;91.60;;;;;;5084178;28;19916;-71
2022/10/08 02:53:18;;;;;;;;;;;11.90;91.30;;;;;;5069246;28;19918;-71
2022/10/08 02:56:01;;;;;;;;;;;11.90;91.30;;;;;;5081891;28;19920;-71
2022/10/08 02:58:26;;;;;;;;;;;12.00;91.40;;;;;;5087937;28;19923;-71
2022/10/08 03:00:55;;;;;;;;;;;11.90;91.30;;;;;;5084135;28;19916;-71
2022/10/08 03:03:34;;;;;;;;;;;12.00;91.30;;;;;;5083316;28;19918;-71
2022/10/08 03:06:05;;;;;;;;;;;12.00;91.40;;;;;;5083897;28;20284;-71
2022/10/08 03:08:31;;;;;;;;;;;12.00;91.40;;;;;;5069023;28;19965;-71
2022/10/08 03:10:57;;;;;;;;;;;12.00;91.40;;;;;;5083314;28;19927;-71
2022/10/08 03:13:23;;;;;;;;;;;12.00;91.60;;;;;;5086496;28;20002;-71
2022/10/08 03:15:50;;;;;;;;;;;12.00;91.30;;;;;;5082267;28;20037;-71
2022/10/08 03:18:16;;;;;;;;;;;12.00;91.30;;;;;;5087490;28;19957;-71
2022/10/08 03:20:44;;;;;;;;;;;12.00;91.30;;;;;;5083939;28;20490;-71
2022/10/08 03:23:11;;;;;;;;;;;12.00;91.30;;;;;;5086943;28;20501;-71
2022/10/08 03:25:36;;;;;;;;;;;12.00;91.40;;;;;;5065257;28;19920;-71
2022/10/08 03:28:02;;;;;;;;;;;12.10;91.50;;;;;;5086917;28;19932;-72
2022/10/08 03:30:27;;;;;;;;;;;12.10;91.50;;;;;;5084010;28;19916;-72
2022/10/08 03:32:53;;;;;;;;;;;12.00;91.70;;;;;;5068580;28;19965;-72
2022/10/08 03:35:18;;;;;;;;;;;12.10;91.50;;;;;;5084621;28;19920;-72
2022/10/08 03:37:44;;;;;;;;;;;12.10;91.60;;;;;;5084695;28;19920;-72
2022/10/08 03:40:09;;;;;;;;;;;12.00;91.50;;;;;;5085758;28;19916;-71
2022/10/08 03:42:35;;;;;;;;;;;12.10;91.70;;;;;;5083209;28;19919;-71
2022/10/08 03:45:01;;;;;;;;;;;12.00;91.60;;;;;;5080514;28;20276;-72
2022/10/08 03:47:26;;;;;;;;;;;12.10;91.70;;;;;;5084134;28;19916;-72
2022/10/08 03:49:51;;;;;;;;;;;12.10;91.80;;;;;;5086540;28;19915;-72
2022/10/08 03:52:17;;;;;;;;;;;12.10;91.80;;;;;;5082696;28;19960;-72
2022/10/08 03:54:42;;;;;;;;;;;12.10;92.00;;;;;;5086001;28;20395;-72
2022/10/08 03:57:08;;;;;;;;;;;12.10;91.80;;;;;;5083026;28;19916;-72
2022/10/08 03:59:33;;;;;;;;;;;12.10;91.80;;;;;;5086825;28;20413;-72
2022/10/08 04:01:59;;;;;;;;;;;12.10;92.00;;;;;;5077689;28;19917;-72
2022/10/08 04:04:24;;;;;;;;;;;12.10;91.80;;;;;;5086437;28;19912;-72
2022/10/08 04:06:50;;;;;;;;;;;12.10;91.80;;;;;;5082739;28;23639;-71
2022/10/08 04:09:15;;;;;;;;;;;12.10;91.80;;;;;;5086369;28;20053;-72
2022/10/08 04:11:41;;;;;;;;;;;12.10;91.80;;;;;;5083888;28;19917;-72
2022/10/08 04:14:06;;;;;;;;;;;12.10;91.80;;;;;;5083522;28;19923;-72
2022/10/08 04:16:32;;;;;;;;;;;12.10;91.80;;;;;;5083284;28;19912;-72
2022/10/08 04:18:57;;;;;;;;;;;12.10;92.00;;;;;;5083734;28;19922;-72
2022/10/08 04:21:23;;;;;;;;;;;12.10;91.90;;;;;;5084339;28;19912;-72
2022/10/08 04:23:49;;;;;;;;;;;12.10;92.20;;;;;;5083481;28;19938;-72
2022/10/08 04:26:14;;;;;;;;;;;12.10;91.90;;;;;;5066993;28;19916;-72
2022/10/08 04:28:40;;;;;;;;;;;12.10;91.90;;;;;;5080087;28;20790;-72
2022/10/08 04:31:07;;;;;;;;;;;12.10;92.10;;;;;;5085392;28;19916;-72
2022/10/08 04:33:33;;;;;;;;;;;12.10;92.00;;;;;;5078901;28;20014;-72
2022/10/08 04:35:59;;;;;;;;;;;12.10;92.00;;;;;;5085295;28;20494;-72
2022/10/08 04:38:25;;;;;;;;;;;12.10;92.00;;;;;;5082706;28;19919;-72
2022/10/08 04:41:02;;;;;;;;;;;12.10;92.00;;;;;;5066768;28;19994;-72
2022/10/08 04:43:28;;;;;;;;;;;12.10;92.00;;;;;;5080498;28;19912;-72
2022/10/08 04:45:53;;;;;;;;;;;12.10;92.00;;;;;;5085406;28;19919;-73
2022/10/08 04:48:19;;;;;;;;;;;12.10;92.10;;;;;;5064378;28;20422;-72
2022/10/08 04:50:44;;;;;;;;;;;12.10;92.00;;;;;;5083621;28;20030;-72
2022/10/08 04:53:10;;;;;;;;;;;12.10;92.00;;;;;;5085263;28;19912;-72
2022/10/08 04:55:35;;;;;;;;;;;12.10;92.00;;;;;;5080987;28;19995;-72
2022/10/08 04:58:01;;;;;;;;;;;12.10;92.00;;;;;;5085585;28;20046;-72
2022/10/08 05:00:26;;;;;;;;;;;12.10;92.00;;;;;;5081407;28;20663;-72
2022/10/08 05:02:52;;;;;;;;;;;12.10;92.00;;;;;;5060869;28;19919;-72
2022/10/08 05:05:17;;;;;;;;;;;12.10;92.10;;;;;;5079198;28;19915;-72
2022/10/08 05:07:43;;;;;;;;;;;12.10;92.00;;;;;;5083745;28;19912;-72
2022/10/08 05:10:09;;;;;;;;;;;12.10;92.10;;;;;;5078978;28;19916;-72
2022/10/08 05:12:34;;;;;;;;;;;12.10;92.00;;;;;;5078431;28;19912;-72
2022/10/08 05:14:59;;;;;;;;;;;12.10;92.10;;;;;;5081165;28;19927;-72
2022/10/08 05:17:25;;;;;;;;;;;12.10;92.10;;;;;;5083661;28;20471;-72
2022/10/08 05:19:51;;;;;;;;;;;12.10;92.00;;;;;;5082255;28;19970;-72
2022/10/08 05:22:17;;;;;;;;;;;12.10;92.20;;;;;;5084456;28;19909;-71
2022/10/08 05:24:42;;;;;;;;;;;12.10;92.00;;;;;;5082710;28;19912;-72
2022/10/08 05:27:08;;;;;;;;;;;12.10;92.20;;;;;;5081526;28;19999;-72
2022/10/08 05:29:33;;;;;;;;;;;12.10;92.10;;;;;;5084666;28;20018;-72
2022/10/08 05:31:59;;;;;;;;;;;12.10;92.20;;;;;;5078964;28;19916;-72
2022/10/08 05:34:24;;;;;;;;;;;12.10;92.10;;;;;;5085113;28;19923;-72
2022/10/08 05:36:50;;;;;;;;;;;12.10;92.20;;;;;;5081076;28;19977;-72
2022/10/08 05:39:15;;;;;;;;;;;12.10;92.10;;;;;;5083900;28;19920;-72
2022/10/08 05:41:41;;;;;;;;;;;12.10;92.10;;;;;;5060589;28;19927;-72
2022/10/08 05:44:07;;;;;;;;;;;12.10;92.10;;;;;;5085116;28;20003;-72
2022/10/08 05:46:33;;;;;;;;;;;12.10;92.10;;;;;;5076651;28;19989;-72
2022/10/08 05:49:00;;;;;;;;;;;12.10;92.20;;;;;;5085459;28;19954;-72
2022/10/08 05:51:26;;;;;;;;;;;12.10;92.10;;;;;;5081378;28;19916;-72
2022/10/08 05:53:52;;;;;;;;;;;12.10;92.10;;;;;;5084870;28;20018;-72
2022/10/08 05:56:19;;;;;;;;;;;12.10;92.00;;;;;;5082051;28;19960;-72
2022/10/08 05:58:45;;;;;;;;;;;12.10;92.10;;;;;;5083801;28;19919;-72
2022/10/08 06:01:21;;;;;;;;;;;12.10;92.10;;;;;;5059414;28;19916;-72
2022/10/08 06:03:50;;;;;;;;;;;12.10;92.10;;;;;;5084040;28;19927;-72
2022/10/08 06:06:16;;;;;;;;;;;12.10;92.20;;;;;;5082737;28;19920;-72
2022/10/08 06:08:41;;;;;;;;;;;12.10;92.10;;;;;;5087080;28;19916;-72
2022/10/08 06:11:07;;;;;;;;;;;12.10;92.10;;;;;;5087423;28;20006;-72
2022/10/08 06:13:32;;;;;;;;;;;12.10;92.00;;;;;;5067842;28;19920;-72
2022/10/08 06:15:58;;;;;;;;;;;12.10;92.00;;;;;;5086952;28;19916;-72
2022/10/08 06:18:25;;;;;;;;;;;12.10;92.10;;;;;;5085991;28;20441;-72
2022/10/08 06:20:50;;;;;;;;;;;12.10;92.10;;;;;;5082946;28;19916;-72
2022/10/08 06:23:16;;;;;;;;;;;12.20;92.10;;;;;;5066725;28;20709;-72
2022/10/08 06:25:42;;;;;;;;;;;12.10;92.10;;;;;;5087864;28;20720;-72
2022/10/08 06:28:07;;;;;;;;;;;12.10;92.10;;;;;;5085821;28;19923;-72
2022/10/08 06:30:33;;;;;;;;;;;12.20;92.10;;;;;;5086132;28;20567;-72
2022/10/08 06:32:58;;;;;;;;;;;12.20;92.10;;;;;;5082029;28;19916;-72
2022/10/08 06:35:24;;;;;;;;;;;12.10;92.10;;;;;;5088587;28;19922;-72
2022/10/08 06:37:49;;;;;;;;;;;12.10;92.20;;;;;;5084062;28;20395;-72
2022/10/08 06:40:15;;;;;;;;;;;12.20;92.20;;;;;;5087478;28;20003;-72
2022/10/08 06:42:40;;;;;;;;;;;12.10;92.10;;;;;;5061359;28;19916;-72
2022/10/08 06:45:06;;;;;;;;;;;12.20;92.10;;;;;;5069695;28;19923;-72
2022/10/08 06:47:31;;;;;;;;;;;12.20;92.10;;;;;;5084508;28;19915;-72
2022/10/08 06:49:57;;;;;;;;;;;12.20;92.40;;;;;;5085991;28;19946;-72
2022/10/08 06:52:22;;;;;;;;;;;12.20;92.00;;;;;;5084281;28;19962;-72
2022/10/08 06:54:49;;;;;;;;;;;12.20;92.10;;;;;;5084041;28;19931;-72
2022/10/08 06:57:14;;;;;;;;;;;12.20;92.10;;;;;;5086206;28;19912;-72
2022/10/08 06:59:40;;;;;;;;;;;12.20;92.20;;;;;;5085916;28;20549;-72
2022/10/08 07:02:05;;;;;;;;;;;12.20;92.00;;;;;;5083769;28;19911;-72
2022/10/08 07:04:30;;;;;;;;;;;12.20;92.00;;;;;;5076999;28;19946;-72
2022/10/08 07:06:56;;;;;;;;;;;12.20;92.00;;;;;;5084903;28;19924;-72
2022/10/08 07:09:22;;;;;;;;;;;12.20;92.10;;;;;;5085429;28;19912;-72
2022/10/08 07:11:48;;;;;;;;;;;12.20;92.10;;;;;;5083765;28;20035;-72
2022/10/08 07:14:13;;;;;;;;;;;12.20;92.00;;;;;;5084835;28;20538;-72
2022/10/08 07:16:39;;;;;;;;;;;12.20;92.10;;;;;;5086535;28;19915;-72
2022/10/08 07:19:04;;;;;;;;;;;12.30;92.10;;;;;;5066025;28;19918;-72
2022/10/08 07:21:29;;;;;;;;;;;12.30;92.20;;;;;;5068294;28;19919;-72
2022/10/08 07:23:57;;;;;;;;;;;12.30;92.10;;;;;;5083004;28;20023;-72
2022/10/08 07:26:24;;;;;;;;;;;12.30;92.10;;;;;;5080437;28;19950;-71
2022/10/08 07:28:54;;;;;;;;;;;12.40;92.20;;;;;;5087014;28;19912;-72
2022/10/08 07:31:21;;;;;;;;;;;12.40;92.30;;;;;;5079579;28;19920;-72
2022/10/08 07:33:47;;;;;;;;;;;12.40;92.20;;;;;;5084441;28;19923;-72
2022/10/08 07:36:22;;;;;;;;;;;12.40;92.20;;;;;;5084148;28;19912;-72
2022/10/08 07:38:52;;;;;;;;;;;12.40;92.10;;;;;;5087333;28;19912;-72
2022/10/08 07:41:17;;;;;;;;;;;12.50;92.20;;;;;;5082064;28;19916;-72
2022/10/08 07:43:42;;;;;;;;;;;12.50;92.30;;;;;;5083824;28;20316;-72
2022/10/08 07:46:09;;;;;;;;;;;12.50;92.20;;;;;;5081410;28;20059;-72
2022/10/08 07:48:35;;;;;;;;;;;12.50;92.30;;;;;;5086421;28;19912;-72
2022/10/08 07:51:11;;;;;;;;;;;12.50;92.20;;;;;;5083593;28;19916;-71
2022/10/08 07:53:37;;;;;;;;;;;12.60;92.10;;;;;;5081924;28;20269;-72
2022/10/08 07:56:03;;;;;;;;;;;12.60;92.20;;;;;;5083968;28;19920;-72
2022/10/08 07:58:28;;;;;;;;;;;12.60;92.20;;;;;;5081870;28;19919;-71
2022/10/08 08:00:58;;;;;;;;;;;12.60;92.10;;;;;;5083745;28;19916;-71
2022/10/08 08:03:24;;;;;;;;;;;12.60;92.10;;;;;;5085909;28;19916;-72
2022/10/08 08:05:49;;;;;;;;;;;12.70;92.10;;;;;;5084684;28;19927;-72
2022/10/08 08:08:15;;;;;;;;;;;12.70;92.10;;;;;;5086186;28;20005;-72
2022/10/08 08:10:40;;;;;;;;;;;12.70;92.10;;;;;;5086525;28;19911;-72
2022/10/08 08:13:06;;;;;;;;;;;12.70;92.20;;;;;;5082370;28;19920;-72
2022/10/08 08:15:31;;;;;;;;;;;12.80;92.10;;;;;;5085704;28;20495;-72
2022/10/08 08:17:57;;;;;;;;;;;12.80;92.20;;;;;;5083659;28;19919;-72
2022/10/08 08:20:22;;;;;;;;;;;12.80;92.20;;;;;;5086673;28;20023;-72
2022/10/08 08:22:48;;;;;;;;;;;12.90;92.20;;;;;;5057962;28;20375;-72
2022/10/08 08:25:13;;;;;;;;;;;12.90;92.00;;;;;;5085149;28;19916;-72
2022/10/08 08:27:39;;;;;;;;;;;12.90;92.20;;;;;;5083243;28;19957;-72
2022/10/08 08:30:05;;;;;;;;;;;12.90;92.00;;;;;;5085748;28;19920;-72
2022/10/08 08:32:30;;;;;;;;;;;12.90;92.10;;;;;;5082514;28;19919;-72
2022/10/08 08:34:56;;;;;;;;;;;12.90;92.10;;;;;;5067194;28;20376;-72
2022/10/08 08:37:21;;;;;;;;;;;13.00;92.40;;;;;;5082818;28;19926;-72
2022/10/08 08:39:47;;;;;;;;;;;13.00;92.80;;;;;;5086333;28;19908;-72
2022/10/08 08:42:16;;;;;;;;;;;13.00;92.30;;;;;;5081480;28;19965;-71
2022/10/08 08:44:43;;;;;;;;;;;13.00;92.30;;;;;;5083088;28;19916;-72
2022/10/08 08:47:11;;;;;;;;;;;13.10;92.30;;;;;;5085241;28;20620;-72
2022/10/08 08:49:39;;;;;;;;;;;13.10;92.40;;;;;;5083143;28;19920;-72
2022/10/08 08:52:05;;;;;;;;;;;13.10;92.20;;;;;;5084253;28;19930;-72
2022/10/08 08:54:31;;;;;;;;;;;13.10;92.10;;;;;;5082695;28;20384;-72
2022/10/08 08:57:00;;;;;;;;;;;13.10;92.00;;;;;;5085303;28;19916;-72
2022/10/08 08:59:28;;;;;;;;;;;13.10;92.40;;;;;;5082970;28;19981;-72
2022/10/08 09:02:04;;;;;;;;;;;13.10;92.20;;;;;;5082994;28;19918;-72
2022/10/08 09:04:36;;;;;;;;;;;13.20;92.40;;;;;;5081277;28;19916;-72
2022/10/08 09:07:04;;;;;;;;;;;13.20;92.20;;;;;;5081672;28;20003;-71
2022/10/08 09:09:35;;;;;;;;;;;13.20;92.10;;;;;;5082981;28;20490;-72
2022/10/08 09:12:03;;;;;;;;;;;13.20;92.00;;;;;;5081448;28;20004;-72
2022/10/08 09:14:37;;;;;;;;;;;13.30;92.00;;;;;;5080949;28;20568;-72
2022/10/08 09:17:14;;;;;;;;;;;13.40;92.10;;;;;;5066335;28;19917;-72
2022/10/08 09:19:39;;;;;;;;;;;13.40;92.10;;;;;;5081179;28;19953;-72
2022/10/08 09:22:16;;;;;;;;;;;13.50;91.80;;;;;;5084075;28;19912;-72
2022/10/08 09:24:42;;;;;;;;;;;13.50;92.00;;;;;;5081558;28;20434;-71
2022/10/08 09:27:13;;;;;;;;;;;13.60;92.10;;;;;;5084734;28;19912;-72
2022/10/08 09:29:38;;;;;;;;;;;13.60;91.80;;;;;;5081288;28;19912;-72
2022/10/08 09:32:04;;;;;;;;;;;13.60;91.90;;;;;;5082121;28;19920;-72
2022/10/08 09:34:30;;;;;;;;;;;13.60;92.00;;;;;;5082923;28;19927;-72
2022/10/08 09:37:04;;;;;;;;;;;13.60;91.80;;;;;;5083078;28;19962;-71
2022/10/08 09:39:31;;;;;;;;;;;13.60;91.80;;;;;;5079936;28;19912;-72
2022/10/08 09:42:05;;;;;;;;;;;13.70;92.10;;;;;;5085626;28;19916;-72
2022/10/08 09:44:38;;;;;;;;;;;13.70;91.90;;;;;;5091695;28;19946;-71
2022/10/08 09:47:05;;;;;;;;;;;13.70;92.00;;;;;;5089044;28;20647;-71
2022/10/08 09:49:34;;;;;;;;;;;13.80;91.90;;;;;;5089963;28;19912;-71
2022/10/08 09:52:03;;;;;;;;;;;13.80;91.60;;;;;;5084350;28;19916;-71
2022/10/08 09:54:31;;;;;;;;;;;13.90;91.60;;;;;;5091604;28;19955;-71
2022/10/08 09:56:58;;;;;;;;;;;13.90;91.60;;;;;;5088705;28;20024;-71
2022/10/08 09:59:29;;;;;;;;;;;13.90;91.40;;;;;;5087682;28;19973;-71
2022/10/08 10:01:55;;;;;;;;;;;13.90;91.60;;;;;;5068015;28;19922;-71
2022/10/08 10:04:23;;;;;;;;;;;13.90;92.00;;;;;;5091221;28;19912;-71
2022/10/08 10:06:52;;;;;;;;;;;13.90;91.80;;;;;;5086514;28;19920;-71
2022/10/08 10:09:23;;;;;;;;;;;13.90;91.60;;;;;;5091660;28;20433;-71
2022/10/08 10:11:52;;;;;;;;;;;13.90;91.60;;;;;;5086870;28;20377;-71
2022/10/08 10:14:23;;;;;;;;;;;13.90;91.70;;;;;;5091467;28;19916;-71
2022/10/08 10:16:51;;;;;;;;;;;13.90;91.60;;;;;;5088380;28;19924;-71
2022/10/08 10:19:19;;;;;;;;;;;13.80;91.60;;;;;;5073500;28;19908;-72
2022/10/08 10:21:45;;;;;;;;;;;13.80;91.70;;;;;;5084894;28;19925;-71
2022/10/08 10:24:29;;;;;;;;;;;13.90;91.70;;;;;;5085638;28;20425;-71
2022/10/08 10:26:55;;;;;;;;;;;13.80;91.60;;;;;;5082014;28;19923;-71
2022/10/08 10:29:23;;;;;;;;;;;13.80;91.80;;;;;;5089991;28;20739;-71
2022/10/08 10:31:49;;;;;;;;;;;13.80;91.70;;;;;;5084510;28;19977;-71
2022/10/08 10:34:17;;;;;;;;;;;13.80;91.70;;;;;;5085431;28;19924;-71
2022/10/08 10:36:51;;;;;;;;;;;13.80;91.60;;;;;;5088371;28;19912;-71
2022/10/08 10:39:22;;;;;;;;;;;13.80;91.70;;;;;;5088826;28;20015;-71
2022/10/08 10:42:07;;;;;;;;;;;13.80;91.60;;;;;;5083618;28;19922;-71
2022/10/08 10:44:48;;;;;;;;;;;13.80;91.60;;;;;;5086314;28;19973;-70
2022/10/08 10:47:14;;;;;;;;;;;13.80;91.70;;;;;;5085719;28;19918;-71
2022/10/08 10:49:40;;;;;;;;;;;13.80;91.60;;;;;;5090996;28;19916;-71
2022/10/08 10:52:06;;;;;;;;;;;13.80;91.50;;;;;;5067074;28;19928;-71
2022/10/08 10:54:50;;;;;;;;;;;13.70;91.40;;;;;;5085089;28;20030;-71
2022/10/08 10:57:18;;;;;;;;;;;13.70;91.50;;;;;;5085432;28;19912;-71
2022/10/08 10:59:46;;;;;;;;;;;13.70;91.60;;;;;;5085078;28;20034;-71
2022/10/08 11:02:31;;;;;;;;;;;13.70;91.40;;;;;;5085194;28;19920;-71
2022/10/08 11:04:59;;;;;;;;;;;13.70;91.30;;;;;;5085342;28;19920;-71
2022/10/08 11:07:42;;;;;;;;;;;13.80;91.40;;;;;;5084819;28;19927;-71
2022/10/08 11:10:08;;;;;;;;;;;13.80;91.30;;;;;;5085234;28;20384;-71
2022/10/08 11:12:41;;;;;;;;;;;13.80;91.10;;;;;;5086204;28;19923;-71
2022/10/08 11:15:24;;;;;;;;;;;13.80;91.10;;;;;;5066428;28;20299;-71
2022/10/08 11:17:50;;;;;;;;;;;13.80;91.10;;;;;;5081583;28;19965;-72
2022/10/08 11:20:38;;;;;;;;;;;13.90;90.90;;;;;;5084976;28;19962;-71
2022/10/08 11:23:14;;;;;;;;;;;14.00;90.80;;;;;;5084790;28;19916;-71
2022/10/08 11:25:48;;;;;;;;;;;14.00;90.60;;;;;;5084867;28;19916;-71
2022/10/08 11:28:28;;;;;;;;;;;14.00;90.90;;;;;;5087246;28;19912;-71
2022/10/08 11:30:59;;;;;;;;;;;14.00;90.90;;;;;;5083647;28;19995;-71
2022/10/08 11:33:25;;;;;;;;;;;14.00;90.90;;;;;;5084532;28;19920;-71
2022/10/08 11:36:10;;;;;;;;;;;14.10;90.70;;;;;;5084416;28;20242;-71
2022/10/08 11:38:35;;;;;;;;;;;14.10;90.50;;;;;;5069501;28;20532;-71
2022/10/08 11:41:09;;;;;;;;;;;14.10;90.60;;;;;;5084074;28;19926;-70
2022/10/08 11:43:54;;;;;;;;;;;14.10;90.70;;;;;;5084894;28;19912;-70
2022/10/08 11:46:21;;;;;;;;;;;14.10;90.30;;;;;;5083566;28;20352;-70
2022/10/08 11:48:47;;;;;;;;;;;14.00;90.60;;;;;;5086554;28;19923;-70
2022/10/08 11:51:18;;;;;;;;;;;14.10;90.30;;;;;;5084022;28;19913;-70
2022/10/08 11:54:02;;;;;;;;;;;14.10;90.50;;;;;;5085908;28;19920;-70
2022/10/08 11:56:28;;;;;;;;;;;14.20;90.40;;;;;;5083538;28;19997;-71
2022/10/08 11:58:55;;;;;;;;;;;14.20;90.10;;;;;;5086295;28;19916;-71
2022/10/08 12:01:21;;;;;;;;;;;14.30;90.00;;;;;;5081558;28;20346;-71
2022/10/08 12:04:08;;;;;;;;;;;14.30;89.90;;;;;;5081367;28;19916;-71
2022/10/08 12:06:34;;;;;;;;;;;14.40;89.80;;;;;;5080532;28;20388;-71
2022/10/08 12:09:01;;;;;;;;;;;14.50;89.60;;;;;;5085590;28;19915;-71
2022/10/08 12:11:38;;;;;;;;;;;14.40;89.70;;;;;;5082371;28;19926;-71
2022/10/08 12:14:10;;;;;;;;;;;14.50;89.30;;;;;;5080671;28;19920;-71
2022/10/08 12:16:48;;;;;;;;;;;14.50;89.40;;;;;;5082610;28;19916;-71
2022/10/08 12:19:31;;;;;;;;;;;14.60;88.30;;;;;;5082611;28;19916;-71
2022/10/08 12:22:17;;;;;;;;;;;14.70;89.20;;;;;;5082523;28;19927;-71
2022/10/08 12:24:43;;;;;;;;;;;14.80;88.70;;;;;;5071716;28;19916;-71
2022/10/08 12:27:15;;;;;;;;;;;14.90;88.50;;;;;;5064816;28;19916;-71
2022/10/08 12:29:58;;;;;;;;;;;14.80;88.60;;;;;;5080631;28;19912;-71
2022/10/08 12:32:28;;;;;;;;;;;14.80;89.00;;;;;;5082527;28;19912;-71
2022/10/08 12:34:54;;;;;;;;;;;14.80;88.60;;;;;;5067628;28;20015;-71
2022/10/08 12:37:34;;;;;;;;;;;14.90;88.90;;;;;;5079617;28;19999;-71
2022/10/08 12:40:07;;;;;;;;;;;14.90;88.40;;;;;;5085888;28;20221;-71
2022/10/08 12:42:36;;;;;;;;;;;15.00;88.50;;;;;;5081387;28;20404;-71
2022/10/08 12:45:01;;;;;;;;;;;15.10;88.40;;;;;;5085243;28;20392;-71
2022/10/08 12:47:53;;;;;;;;;;;15.10;86.60;;;;;;5081933;28;19919;-71
2022/10/08 12:50:28;;;;;;;;;;;15.10;86.70;;;;;;5079304;28;19916;-71
2022/10/08 12:52:54;;;;;;;;;;;15.20;85.90;;;;;;5075016;28;19916;-71
2022/10/08 12:55:22;;;;;;;;;;;15.30;87.10;;;;;;5085223;28;20649;-71
2022/10/08 12:57:48;;;;;;;;;;;15.40;87.00;;;;;;5081373;28;20022;-71
2022/10/08 13:00:17;;;;;;;;;;;15.50;86.20;;;;;;5085552;28;20284;-71
2022/10/08 13:02:43;;;;;;;;;;;15.60;86.20;;;;;;5081514;28;20005;-71
2022/10/08 13:05:25;;;;;;;;;;;15.60;86.50;;;;;;5082462;28;19958;-72
2022/10/08 13:07:50;;;;;;;;;;;15.70;85.60;;;;;;5080160;28;19920;-71
2022/10/08 13:10:20;;;;;;;;;;;15.70;87.20;;;;;;5077561;28;19957;-71
2022/10/08 13:13:02;;;;;;;;;;;15.80;85.90;;;;;;5077928;28;19916;-71
2022/10/08 13:15:29;;;;;;;;;;;15.80;86.10;;;;;;5082921;28;20670;-71
2022/10/08 13:17:55;;;;;;;;;;;15.80;85.90;;;;;;5081544;28;19933;-71
2022/10/08 13:20:21;;;;;;;;;;;15.80;86.30;;;;;;5085445;28;19909;-71
2022/10/08 13:22:47;;;;;;;;;;;15.80;87.00;;;;;;5065832;28;19920;-71
2022/10/08 13:25:31;;;;;;;;;;;15.70;86.80;;;;;;5082914;28;19920;-72
2022/10/08 13:28:15;;;;;;;;;;;15.70;86.10;;;;;;5082624;28;19926;-71
2022/10/08 13:30:41;;;;;;;;;;;15.70;86.10;;;;;;5066703;28;20273;-71
2022/10/08 13:33:11;;;;;;;;;;;15.70;87.10;;;;;;5080607;28;20556;-71
2022/10/08 13:35:37;;;;;;;;;;;15.80;85.60;;;;;;5079491;28;19924;-71
2022/10/08 13:38:05;;;;;;;;;;;15.80;87.10;;;;;;5084310;28;20030;-71
2022/10/08 13:40:31;;;;;;;;;;;15.90;86.80;;;;;;5082157;28;20779;-71
2022/10/08 13:42:59;;;;;;;;;;;15.90;86.50;;;;;;5083924;28;19912;-71
2022/10/08 13:45:26;;;;;;;;;;;15.90;86.50;;;;;;5082249;28;19916;-71
2022/10/08 13:47:52;;;;;;;;;;;15.90;86.10;;;;;;5084832;28;20749;-71
2022/10/08 13:50:18;;;;;;;;;;;15.80;86.20;;;;;;5082335;28;20516;-71
2022/10/08 13:52:45;;;;;;;;;;;15.80;86.70;;;;;;5080940;28;20034;-71
2022/10/08 13:55:20;;;;;;;;;;;15.80;87.10;;;;;;5077837;28;19966;-71
2022/10/08 13:57:45;;;;;;;;;;;15.80;87.30;;;;;;5083406;28;19952;-71
2022/10/08 14:00:11;;;;;;;;;;;15.80;87.50;;;;;;5082180;28;19950;-71
2022/10/08 14:02:37;;;;;;;;;;;15.70;87.40;;;;;;5079489;28;19924;-71
2022/10/08 14:05:02;;;;;;;;;;;15.70;87.80;;;;;;5079521;28;20451;-71
2022/10/08 14:07:30;;;;;;;;;;;15.70;87.70;;;;;;5066159;28;19981;-71
2022/10/08 14:09:57;;;;;;;;;;;15.70;87.80;;;;;;5080362;28;20021;-71
2022/10/08 14:12:25;;;;;;;;;;;15.70;87.70;;;;;;5083018;28;20595;-71
2022/10/08 14:14:51;;;;;;;;;;;15.60;88.10;;;;;;5081727;28;20322;-71
2022/10/08 14:17:16;;;;;;;;;;;15.70;88.00;;;;;;5082034;28;19927;-71
2022/10/08 14:19:42;;;;;;;;;;;15.60;88.10;;;;;;5084204;28;19973;-71
2022/10/08 14:22:09;;;;;;;;;;;15.70;88.30;;;;;;5081737;28;19923;-71
2022/10/08 14:24:35;;;;;;;;;;;15.70;88.40;;;;;;5083737;28;19916;-71